createdAt,value
2022-12-13T00:00:18.313Z,91.20
2022-12-13T00:00:50.016Z,91.10
2022-12-13T00:01:23.809Z,91.10
2022-12-13T00:01:56.460Z,91.30
2022-12-13T00:02:28.335Z,91.10
2022-12-13T00:03:00.130Z,91.30
2022-12-13T00:03:31.921Z,91.10
2022-12-13T00:04:06.177Z,91.30
2022-12-13T00:04:38.069Z,91.10
2022-12-13T00:05:10.435Z,91.40
2022-12-13T00:05:46.177Z,91.20
2022-12-13T00:06:17.908Z,92.40
2022-12-13T00:06:51.325Z,91.10
2022-12-13T00:07:23.137Z,91.10
2022-12-13T00:07:54.946Z,91.10
2022-12-13T00:08:26.769Z,91.00
2022-12-13T00:08:59.235Z,92.60
2022-12-13T00:09:31.087Z,91.20
2022-12-13T00:10:04.915Z,91.20
2022-12-13T00:10:37.178Z,91.20
2022-12-13T00:11:12.297Z,91.30
2022-12-13T00:11:44.596Z,91.20
2022-12-13T00:12:16.404Z,91.00
2022-12-13T00:12:48.172Z,91.20
2022-12-13T00:13:19.927Z,90.90
2022-12-13T00:13:51.712Z,90.90
2022-12-13T00:14:23.612Z,91.30
2022-12-13T00:14:55.368Z,90.90
2022-12-13T00:15:27.160Z,91.10
2022-12-13T00:16:01.024Z,91.20
2022-12-13T00:16:32.843Z,91.10
2022-12-13T00:17:04.617Z,90.80
2022-12-13T00:17:36.329Z,90.80
2022-12-13T00:18:08.123Z,91.10
2022-12-13T00:18:40.595Z,91.30
2022-12-13T00:19:14.256Z,91.10
2022-12-13T00:19:47.426Z,91.10
2022-12-13T00:20:19.216Z,90.80
2022-12-13T00:20:50.927Z,90.80
2022-12-13T00:21:25.523Z,91.10
2022-12-13T00:21:57.487Z,91.00
2022-12-13T00:22:29.242Z,90.80
2022-12-13T00:23:01.017Z,91.00
2022-12-13T00:23:32.866Z,91.00
2022-12-13T00:24:07.828Z,91.80
2022-12-13T00:24:45.799Z,91.00
2022-12-13T00:25:19.816Z,91.00
2022-12-13T00:25:51.586Z,90.80
2022-12-13T00:26:27.435Z,91.00
2022-12-13T00:26:59.271Z,91.00
2022-12-13T00:27:31.176Z,91.00
2022-12-13T00:28:03.319Z,91.00
2022-12-13T00:28:35.094Z,92.00
2022-12-13T00:29:08.133Z,90.70
2022-12-13T00:29:40.105Z,90.90
2022-12-13T00:30:12.163Z,90.70
2022-12-13T00:30:43.977Z,90.90
2022-12-13T00:32:08.771Z,91.70
2022-12-13T00:32:40.519Z,91.00
2022-12-13T00:33:12.263Z,90.60
2022-12-13T00:33:44.074Z,90.60
2022-12-13T00:34:15.771Z,90.80
2022-12-13T00:34:47.528Z,90.80
2022-12-13T00:35:19.290Z,90.50
2022-12-13T00:35:51.045Z,90.50
2022-12-13T00:36:22.941Z,90.60
2022-12-13T00:36:55.530Z,90.80
2022-12-13T00:37:27.339Z,90.60
2022-12-13T00:37:59.521Z,91.90
2022-12-13T00:38:31.618Z,90.80
2022-12-13T00:39:03.484Z,90.80
2022-12-13T00:39:35.206Z,90.60
2022-12-13T00:40:07.691Z,90.60
2022-12-13T00:40:39.750Z,90.90
2022-12-13T00:41:20.005Z,90.60
2022-12-13T00:41:51.741Z,90.80
2022-12-13T00:42:23.445Z,90.80
2022-12-13T00:42:55.202Z,90.60
2022-12-13T00:43:26.947Z,90.50
2022-12-13T00:44:00.491Z,90.80
2022-12-13T00:44:32.468Z,90.70
2022-12-13T00:45:04.676Z,90.60
2022-12-13T00:45:38.136Z,90.60
2022-12-13T00:46:16.798Z,90.60
2022-12-13T00:46:48.620Z,90.80
2022-12-13T00:47:22.287Z,90.50
2022-12-13T00:47:54.138Z,91.30
2022-12-13T00:48:25.889Z,90.70
2022-12-13T00:49:00.502Z,90.60
2022-12-13T00:49:32.320Z,90.70
2022-12-13T00:50:05.539Z,90.80
2022-12-13T00:50:38.656Z,91.00
2022-12-13T00:51:11.524Z,90.70
2022-12-13T00:51:43.653Z,91.70
2022-12-13T00:52:15.529Z,90.50
2022-12-13T00:52:47.355Z,90.80
2022-12-13T00:53:19.142Z,90.60
2022-12-13T00:53:51.253Z,90.70
2022-12-13T00:54:23.141Z,90.80
2022-12-13T00:54:54.846Z,90.50
2022-12-13T00:55:27.144Z,90.70
2022-12-13T00:55:58.900Z,90.70
2022-12-13T00:56:32.358Z,90.70
2022-12-13T00:57:04.120Z,90.60
2022-12-13T00:57:35.967Z,90.50
2022-12-13T00:58:07.856Z,90.50
2022-12-13T00:58:40.827Z,90.80
2022-12-13T00:59:15.749Z,90.70
2022-12-13T00:59:47.510Z,90.70
2022-12-13T01:00:20.817Z,90.50
2022-12-13T01:00:52.608Z,90.70
2022-12-13T01:01:27.889Z,90.40
2022-12-13T01:01:59.627Z,90.70
2022-12-13T01:02:31.428Z,90.70
2022-12-13T01:03:20.665Z,90.50
2022-12-13T01:03:58.539Z,90.70
2022-12-13T01:04:30.308Z,90.60
2022-12-13T01:05:02.193Z,91.70
2022-12-13T01:06:12.836Z,90.40
2022-12-13T01:06:46.315Z,90.60
2022-12-13T01:07:18.118Z,90.70
2022-12-13T01:07:49.923Z,90.50
2022-12-13T01:08:21.845Z,90.80
2022-12-13T01:08:53.673Z,90.50
2022-12-13T01:09:29.650Z,90.60
2022-12-13T01:10:01.379Z,90.60
2022-12-13T01:10:33.125Z,90.60
2022-12-13T01:11:06.124Z,90.70
2022-12-13T01:11:39.935Z,90.40
2022-12-13T01:12:11.970Z,90.30
2022-12-13T01:12:43.833Z,90.70
2022-12-13T01:13:15.939Z,91.60
2022-12-13T01:13:47.794Z,90.30
2022-12-13T01:14:19.636Z,90.60
2022-12-13T01:14:55.904Z,90.60
2022-12-13T01:15:27.883Z,90.60
2022-12-13T01:16:03.953Z,89.60
2022-12-13T01:16:35.708Z,90.60
2022-12-13T01:17:08.856Z,90.40
2022-12-13T01:17:40.627Z,90.30
2022-12-13T01:18:13.820Z,90.60
2022-12-13T01:18:45.998Z,91.70
2022-12-13T01:19:17.711Z,91.80
2022-12-13T01:19:49.452Z,90.70
2022-12-13T01:20:21.267Z,90.70
2022-12-13T01:21:15.316Z,90.60
2022-12-13T01:21:47.130Z,90.50
2022-12-13T01:22:18.928Z,91.70
2022-12-13T01:22:50.694Z,90.60
2022-12-13T01:23:22.470Z,90.40
2022-12-13T01:23:54.228Z,90.60
2022-12-13T01:24:26.067Z,90.60
2022-12-13T01:24:57.819Z,90.50
2022-12-13T01:25:29.955Z,90.30
2022-12-13T01:26:11.459Z,90.30
2022-12-13T01:26:43.336Z,91.10
2022-12-13T01:27:15.090Z,90.60
2022-12-13T01:27:46.887Z,90.50
2022-12-13T01:28:18.871Z,90.40
2022-12-13T01:28:51.933Z,90.20
2022-12-13T01:29:25.935Z,90.50
2022-12-13T01:29:58.045Z,90.70
2022-12-13T01:30:29.811Z,91.30
2022-12-13T01:31:05.356Z,90.50
2022-12-13T01:31:41.354Z,90.50
2022-12-13T01:32:13.129Z,90.60
2022-12-13T01:32:44.938Z,90.60
2022-12-13T01:33:16.665Z,90.60
2022-12-13T01:33:49.150Z,90.60
2022-12-13T01:34:26.256Z,90.50
2022-12-13T01:34:58.465Z,90.40
2022-12-13T01:35:30.241Z,90.40
2022-12-13T01:36:04.185Z,90.40
2022-12-13T01:36:38.180Z,90.60
2022-12-13T01:37:10.129Z,90.50
2022-12-13T01:37:43.037Z,90.50
2022-12-13T01:38:15.590Z,90.20
2022-12-13T01:38:48.171Z,90.50
2022-12-13T01:39:20.733Z,90.50
2022-12-13T01:39:58.654Z,90.40
2022-12-13T01:40:30.589Z,90.20
2022-12-13T01:41:03.441Z,90.60
2022-12-13T01:41:51.273Z,90.40
2022-12-13T01:42:22.999Z,90.20
2022-12-13T01:42:54.777Z,90.20
2022-12-13T01:43:51.040Z,90.40
2022-12-13T01:44:59.510Z,90.20
2022-12-13T01:45:31.254Z,90.40
2022-12-13T01:46:04.086Z,90.40
2022-12-13T01:46:36.418Z,90.20
2022-12-13T01:47:08.267Z,90.20
2022-12-13T01:47:46.750Z,91.40
2022-12-13T01:48:25.812Z,90.20
2022-12-13T01:49:19.552Z,90.20
2022-12-13T01:49:55.781Z,90.40
2022-12-13T01:50:38.912Z,90.30
2022-12-13T01:51:15.715Z,90.20
2022-12-13T01:52:00.819Z,90.90
2022-12-13T01:52:34.880Z,90.30
2022-12-13T01:53:09.041Z,90.50
2022-12-13T01:53:44.288Z,90.30
2022-12-13T01:54:21.991Z,90.30
2022-12-13T01:54:56.908Z,90.00
2022-12-13T01:55:41.661Z,90.30
2022-12-13T01:56:23.142Z,91.40
2022-12-13T01:57:00.584Z,90.20
2022-12-13T01:57:39.601Z,90.20
2022-12-13T01:58:15.487Z,90.20
2022-12-13T01:58:51.255Z,90.30
2022-12-13T01:59:23.871Z,90.30
2022-12-13T01:59:55.893Z,90.00
2022-12-13T02:00:28.381Z,91.10
2022-12-13T02:01:00.841Z,90.30
2022-12-13T02:01:33.204Z,91.20
2022-12-13T02:02:07.397Z,90.00
2022-12-13T02:02:39.655Z,90.20
2022-12-13T02:03:20.721Z,89.80
2022-12-13T02:03:53.445Z,90.20
2022-12-13T02:04:33.769Z,90.20
2022-12-13T02:05:27.345Z,89.90
2022-12-13T02:06:12.044Z,90.10
2022-12-13T02:06:46.545Z,90.00
2022-12-13T02:07:22.597Z,89.80
2022-12-13T02:07:57.959Z,90.10
2022-12-13T02:08:30.266Z,90.00
2022-12-13T02:09:08.885Z,89.70
2022-12-13T02:09:42.046Z,90.20
2022-12-13T02:10:13.831Z,90.10
2022-12-13T02:10:47.765Z,90.10
2022-12-13T02:11:52.798Z,89.70
2022-12-13T02:12:29.907Z,89.80
2022-12-13T02:13:02.956Z,90.00
2022-12-13T02:13:36.855Z,90.00
2022-12-13T02:14:09.767Z,90.00
2022-12-13T02:14:41.936Z,90.00
2022-12-13T02:15:16.564Z,89.10
2022-12-13T02:16:26.185Z,89.80
2022-12-13T02:17:03.762Z,90.30
2022-12-13T02:18:09.619Z,89.40
2022-12-13T02:19:11.929Z,89.80
2022-12-13T02:20:04.286Z,89.70
2022-12-13T02:20:48.120Z,90.30
2022-12-13T02:21:59.948Z,89.60
2022-12-13T02:22:37.670Z,89.60
2022-12-13T02:23:15.033Z,90.00
2022-12-13T02:24:12.170Z,89.90
2022-12-13T02:25:05.733Z,89.90
2022-12-13T02:25:56.067Z,89.90
2022-12-13T02:26:36.839Z,89.20
2022-12-13T02:27:42.533Z,89.70
2022-12-13T02:28:31.770Z,89.20
2022-12-13T02:29:29.958Z,89.50
2022-12-13T02:30:27.031Z,89.50
2022-12-13T02:31:23.811Z,89.40
2022-12-13T02:32:23.150Z,89.30
2022-12-13T02:33:21.767Z,89.30
2022-12-13T02:34:05.706Z,90.80
2022-12-13T02:34:55.634Z,89.40
2022-12-13T02:35:52.976Z,89.00
2022-12-13T02:36:46.628Z,89.40
2022-12-13T02:37:24.770Z,88.90
2022-12-13T02:38:05.935Z,88.70
2022-12-13T02:38:58.177Z,89.40
2022-12-13T02:39:37.285Z,89.00
2022-12-13T02:40:30.071Z,89.50
2022-12-13T02:41:29.311Z,89.30
2022-12-13T02:42:21.413Z,89.10
2022-12-13T02:43:09.592Z,88.80
2022-12-13T02:44:03.637Z,89.20
2022-12-13T02:44:47.547Z,89.00
2022-12-13T02:45:46.289Z,89.10
2022-12-13T02:46:23.411Z,88.90
2022-12-13T02:47:22.256Z,89.00
2022-12-13T02:48:00.833Z,89.10
2022-12-13T02:48:37.640Z,88.80
2022-12-13T02:49:11.161Z,89.20
2022-12-13T02:49:48.927Z,88.70
2022-12-13T02:50:54.487Z,88.90
2022-12-13T02:51:28.633Z,88.80
2022-12-13T02:52:01.726Z,89.00
2022-12-13T02:52:34.551Z,89.00
2022-12-13T02:53:08.844Z,88.40
2022-12-13T02:53:42.068Z,90.00
2022-12-13T02:54:13.871Z,88.70
2022-12-13T02:54:47.311Z,88.50
2022-12-13T02:55:19.144Z,88.90
2022-12-13T02:55:51.006Z,88.90
2022-12-13T02:56:22.884Z,89.00
2022-12-13T02:56:59.639Z,88.80
2022-12-13T02:57:34.438Z,88.90
2022-12-13T02:58:07.106Z,88.80
2022-12-13T02:58:46.566Z,88.80
2022-12-13T02:59:18.819Z,88.60
2022-12-13T02:59:52.620Z,89.00
2022-12-13T03:00:47.322Z,89.00
2022-12-13T03:01:40.442Z,88.30
2022-12-13T03:02:31.183Z,89.10
2022-12-13T03:03:27.546Z,89.10
2022-12-13T03:04:22.174Z,89.00
2022-12-13T03:05:30.716Z,88.90
2022-12-13T03:06:33.653Z,89.00
2022-12-13T03:07:28.499Z,89.00
2022-12-13T03:09:15.148Z,88.40
2022-12-13T03:10:00.303Z,88.90
2022-12-13T03:10:50.599Z,88.80
2022-12-13T03:11:48.427Z,87.60
2022-12-13T03:12:57.222Z,88.90
2022-12-13T03:13:40.060Z,88.90
2022-12-13T03:14:15.057Z,88.90
2022-12-13T03:14:56.716Z,89.10
2022-12-13T03:15:47.634Z,89.10
2022-12-13T03:16:33.794Z,89.00
2022-12-13T03:17:08.891Z,88.90
2022-12-13T03:17:57.543Z,88.80
2022-12-13T03:18:32.953Z,88.90
2022-12-13T03:19:08.373Z,88.30
2022-12-13T03:19:41.434Z,88.90
2022-12-13T03:20:23.177Z,90.70
2022-12-13T03:21:05.932Z,89.00
2022-12-13T03:21:48.009Z,89.00
2022-12-13T03:22:20.256Z,89.00
2022-12-13T03:22:53.200Z,88.90
2022-12-13T03:23:25.706Z,90.70
2022-12-13T03:23:57.674Z,88.90
2022-12-13T03:24:29.393Z,88.40
2022-12-13T03:25:01.794Z,88.40
2022-12-13T03:25:33.583Z,89.00
2022-12-13T03:26:12.382Z,88.50
2022-12-13T03:26:44.374Z,89.00
2022-12-13T03:27:16.192Z,89.00
2022-12-13T03:27:48.026Z,88.40
2022-12-13T03:28:20.241Z,88.40
2022-12-13T03:28:53.128Z,88.40
2022-12-13T03:29:25.135Z,86.30
2022-12-13T03:29:57.545Z,88.50
2022-12-13T03:30:31.423Z,88.40
2022-12-13T03:31:03.481Z,89.00
2022-12-13T03:31:35.382Z,88.50
2022-12-13T03:32:07.127Z,89.10
2022-12-13T03:32:38.949Z,88.40
2022-12-13T03:33:10.717Z,90.50
2022-12-13T03:33:42.532Z,89.00
2022-12-13T03:34:14.379Z,89.00
2022-12-13T03:35:00.690Z,89.20
2022-12-13T03:35:34.926Z,90.20
2022-12-13T03:36:19.748Z,89.10
2022-12-13T03:36:52.599Z,89.10
2022-12-13T03:37:24.521Z,89.20
2022-12-13T03:37:56.353Z,89.10
2022-12-13T03:38:29.113Z,89.00
2022-12-13T03:39:01.035Z,89.00
2022-12-13T03:39:33.447Z,89.10
2022-12-13T03:40:08.002Z,88.30
2022-12-13T03:40:39.879Z,89.10
2022-12-13T03:41:14.952Z,88.50
2022-12-13T03:41:46.999Z,89.00
2022-12-13T03:42:19.008Z,89.20
2022-12-13T03:42:50.750Z,89.10
2022-12-13T03:43:23.517Z,89.00
2022-12-13T03:43:55.480Z,88.90
2022-12-13T03:44:31.367Z,88.50
2022-12-13T03:45:03.841Z,89.10
2022-12-13T03:45:35.695Z,89.10
2022-12-13T03:46:08.343Z,89.90
2022-12-13T03:46:40.532Z,89.20
2022-12-13T03:47:12.389Z,89.10
2022-12-13T03:47:44.188Z,88.60
2022-12-13T03:48:22.171Z,88.50
2022-12-13T03:48:54.923Z,88.40
2022-12-13T03:49:26.626Z,88.50
2022-12-13T03:50:26.643Z,88.50
2022-12-13T03:50:59.926Z,89.20
2022-12-13T03:51:31.639Z,88.50
2022-12-13T03:52:03.898Z,89.20
2022-12-13T03:52:35.688Z,89.10
2022-12-13T03:53:07.404Z,89.10
2022-12-13T03:53:54.317Z,88.50
2022-12-13T03:54:26.065Z,88.50
2022-12-13T03:54:57.868Z,88.90
2022-12-13T03:55:30.377Z,86.20
2022-12-13T03:56:05.499Z,88.40
2022-12-13T03:56:37.383Z,88.80
2022-12-13T03:57:09.150Z,88.80
2022-12-13T03:57:40.943Z,88.20
2022-12-13T03:58:12.779Z,88.90
2022-12-13T03:58:44.717Z,89.00
2022-12-13T03:59:16.529Z,88.30
2022-12-13T03:59:48.509Z,88.90
2022-12-13T04:00:20.483Z,88.40
2022-12-13T04:00:52.267Z,88.90
2022-12-13T04:01:24.101Z,88.30
2022-12-13T04:01:55.957Z,89.00
2022-12-13T04:02:30.915Z,88.90
2022-12-13T04:03:07.264Z,89.00
2022-12-13T04:03:40.529Z,89.10
2022-12-13T04:04:12.307Z,88.50
2022-12-13T04:04:44.015Z,88.50
2022-12-13T04:05:16.379Z,89.50
2022-12-13T04:05:48.743Z,90.20
2022-12-13T04:06:22.225Z,89.10
2022-12-13T04:06:55.227Z,88.40
2022-12-13T04:07:34.319Z,88.90
2022-12-13T04:08:21.735Z,90.60
2022-12-13T04:08:54.422Z,89.00
2022-12-13T04:09:26.329Z,89.00
2022-12-13T04:09:58.100Z,89.00
2022-12-13T04:10:30.029Z,88.50
2022-12-13T04:11:21.936Z,89.70
2022-12-13T04:12:12.281Z,89.10
2022-12-13T04:13:35.208Z,88.70
2022-12-13T04:14:06.972Z,90.30
2022-12-13T04:14:38.733Z,89.60
2022-12-13T04:15:10.571Z,88.40
2022-12-13T04:15:48.971Z,88.50
2022-12-13T04:16:21.431Z,90.70
2022-12-13T04:16:53.318Z,89.00
2022-12-13T04:17:25.180Z,88.40
2022-12-13T04:17:56.908Z,89.10
2022-12-13T04:18:28.759Z,88.40
2022-12-13T04:19:00.562Z,89.30
2022-12-13T04:19:32.545Z,89.10
2022-12-13T04:20:05.931Z,89.10
2022-12-13T04:20:37.648Z,88.50
2022-12-13T04:21:09.454Z,88.60
2022-12-13T04:21:41.208Z,88.60
2022-12-13T04:22:13.035Z,89.30
2022-12-13T04:23:16.960Z,88.70
2022-12-13T04:23:48.723Z,89.20
2022-12-13T04:24:21.659Z,89.50
2022-12-13T04:25:04.302Z,89.20
2022-12-13T04:25:36.313Z,89.30
2022-12-13T04:26:08.169Z,89.40
2022-12-13T04:26:39.877Z,89.30
2022-12-13T04:27:11.603Z,90.50
2022-12-13T04:27:43.341Z,88.60
2022-12-13T04:28:22.048Z,89.30
2022-12-13T04:28:54.960Z,89.20
2022-12-13T04:29:26.798Z,89.20
2022-12-13T04:30:07.541Z,88.70
2022-12-13T04:30:39.476Z,89.10
2022-12-13T04:31:11.248Z,88.60
2022-12-13T04:31:43.177Z,88.70
2022-12-13T04:32:26.772Z,89.10
2022-12-13T04:32:59.373Z,89.70
2022-12-13T04:33:32.687Z,89.20
2022-12-13T04:34:04.679Z,88.70
2022-12-13T04:34:37.762Z,89.20
2022-12-13T04:35:09.655Z,88.80
2022-12-13T04:35:41.419Z,88.70
2022-12-13T04:36:31.440Z,89.30
2022-12-13T04:37:04.734Z,90.80
2022-12-13T04:37:36.533Z,89.10
2022-12-13T04:38:40.374Z,90.00
2022-12-13T04:39:22.332Z,88.50
2022-12-13T04:40:00.872Z,89.20
2022-12-13T04:40:33.141Z,88.70
2022-12-13T04:41:12.659Z,89.20
2022-12-13T04:41:44.715Z,89.10
2022-12-13T04:42:16.863Z,89.30
2022-12-13T04:42:54.149Z,89.20
2022-12-13T04:43:26.240Z,88.70
2022-12-13T04:43:57.964Z,89.30
2022-12-13T04:44:35.057Z,88.80
2022-12-13T04:45:14.988Z,89.30
2022-12-13T04:45:47.069Z,88.70
2022-12-13T04:46:20.425Z,89.20
2022-12-13T04:46:52.196Z,89.10
2022-12-13T04:47:24.018Z,89.20
2022-12-13T04:47:55.777Z,88.70
2022-12-13T04:48:30.837Z,89.20
2022-12-13T04:49:04.048Z,89.40
2022-12-13T04:49:36.014Z,89.40
2022-12-13T04:50:08.201Z,89.50
2022-12-13T04:50:39.955Z,89.30
2022-12-13T04:51:11.675Z,89.40
2022-12-13T04:51:43.396Z,88.80
2022-12-13T04:52:22.048Z,88.70
2022-12-13T04:52:54.560Z,89.30
2022-12-13T04:53:26.781Z,89.40
2022-12-13T04:54:24.362Z,89.30
2022-12-13T04:54:55.665Z,89.40
2022-12-13T04:55:28.241Z,89.40
2022-12-13T04:56:02.764Z,89.30
2022-12-13T04:56:34.545Z,89.20
2022-12-13T04:57:09.502Z,89.30
2022-12-13T04:57:41.648Z,89.30
2022-12-13T04:58:16.112Z,89.30
2022-12-13T04:58:51.474Z,89.20
2022-12-13T04:59:23.276Z,88.70
2022-12-13T04:59:55.057Z,89.20
2022-12-13T05:00:26.895Z,88.60
2022-12-13T05:00:58.653Z,89.30
2022-12-13T05:01:30.494Z,89.40
2022-12-13T05:02:02.763Z,88.80
2022-12-13T05:02:34.697Z,89.30
2022-12-13T05:03:06.785Z,90.60
2022-12-13T05:03:39.134Z,89.40
2022-12-13T05:04:10.836Z,89.40
2022-12-13T05:04:42.621Z,88.80
2022-12-13T05:05:15.063Z,88.80
2022-12-13T05:05:47.124Z,89.40
2022-12-13T05:06:27.572Z,88.80
2022-12-13T05:06:59.679Z,89.30
2022-12-13T05:07:31.438Z,89.40
2022-12-13T05:08:03.242Z,89.20
2022-12-13T05:08:36.891Z,88.60
2022-12-13T05:09:11.508Z,89.10
2022-12-13T05:09:43.511Z,89.30
2022-12-13T05:10:34.168Z,89.50
2022-12-13T05:11:10.846Z,88.80
2022-12-13T05:11:45.856Z,89.30
2022-12-13T05:12:23.093Z,88.80
2022-12-13T05:12:55.169Z,89.20
2022-12-13T05:13:27.406Z,86.90
2022-12-13T05:14:00.320Z,89.30
2022-12-13T05:14:32.325Z,88.80
2022-12-13T05:15:04.572Z,88.80
2022-12-13T05:15:37.305Z,89.20
2022-12-13T05:16:10.170Z,89.30
2022-12-13T05:16:41.999Z,89.30
2022-12-13T05:17:13.764Z,89.30
2022-12-13T05:17:45.549Z,89.40
2022-12-13T05:18:17.312Z,88.80
2022-12-13T05:18:49.015Z,89.30
2022-12-13T05:19:21.290Z,89.20
2022-12-13T05:20:03.236Z,89.30
2022-12-13T05:20:36.047Z,88.60
2022-12-13T05:21:11.177Z,88.70
2022-12-13T05:21:45.787Z,88.60
2022-12-13T05:22:54.930Z,88.60
2022-12-13T05:23:26.659Z,89.10
2022-12-13T05:23:58.401Z,88.60
2022-12-13T05:24:31.562Z,88.60
2022-12-13T05:25:04.002Z,88.70
2022-12-13T05:25:38.623Z,89.10
2022-12-13T05:26:10.418Z,88.50
2022-12-13T05:26:42.383Z,88.60
2022-12-13T05:27:25.967Z,88.90
2022-12-13T05:27:58.253Z,89.00
2022-12-13T05:28:31.136Z,88.40
2022-12-13T05:29:02.952Z,89.00
2022-12-13T05:29:36.161Z,88.60
2022-12-13T05:30:08.625Z,89.00
2022-12-13T05:30:41.988Z,89.00
2022-12-13T05:31:22.498Z,90.60
2022-12-13T05:31:54.639Z,89.00
2022-12-13T05:32:26.397Z,90.00
2022-12-13T05:32:58.162Z,88.90
2022-12-13T05:33:29.937Z,88.40
2022-12-13T05:34:02.065Z,88.30
2022-12-13T05:34:33.927Z,89.00
2022-12-13T05:35:06.195Z,88.50
2022-12-13T05:35:38.789Z,89.00
2022-12-13T05:36:10.647Z,88.50
2022-12-13T05:36:42.473Z,89.10
2022-12-13T05:37:14.304Z,88.90
2022-12-13T05:37:46.532Z,88.50
2022-12-13T05:38:25.054Z,89.00
2022-12-13T05:38:56.876Z,88.40
2022-12-13T05:39:30.171Z,88.40
2022-12-13T05:40:02.325Z,88.90
2022-12-13T05:40:34.188Z,88.50
2022-12-13T05:41:06.577Z,88.40
2022-12-13T05:41:38.314Z,86.20
2022-12-13T05:42:10.176Z,89.10
2022-12-13T05:42:41.940Z,89.00
2022-12-13T05:43:22.176Z,88.40
2022-12-13T05:43:54.212Z,88.50
2022-12-13T05:44:26.227Z,89.10
2022-12-13T05:44:57.960Z,88.40
2022-12-13T05:45:31.751Z,88.40
2022-12-13T05:46:04.326Z,88.20
2022-12-13T05:46:41.386Z,88.90
2022-12-13T05:47:13.427Z,88.40
2022-12-13T05:47:45.890Z,88.90
2022-12-13T05:48:24.640Z,88.30
2022-12-13T05:48:56.769Z,88.90
2022-12-13T05:49:29.626Z,88.30
2022-12-13T05:50:01.311Z,88.20
2022-12-13T05:50:33.108Z,88.30
2022-12-13T05:51:09.693Z,88.30
2022-12-13T05:51:43.417Z,88.30
2022-12-13T05:52:30.634Z,88.80
2022-12-13T05:53:04.458Z,88.70
2022-12-13T05:53:36.344Z,88.10
2022-12-13T05:54:08.107Z,88.30
2022-12-13T05:54:39.934Z,88.20
2022-12-13T05:55:15.440Z,88.30
2022-12-13T05:55:48.706Z,88.30
2022-12-13T05:56:22.893Z,88.30
2022-12-13T05:56:55.576Z,88.70
2022-12-13T05:57:27.287Z,88.80
2022-12-13T05:58:02.308Z,88.20
2022-12-13T05:58:35.661Z,88.80
2022-12-13T05:59:08.629Z,88.90
2022-12-13T05:59:40.406Z,88.90
2022-12-13T06:00:29.681Z,88.80
2022-12-13T06:01:11.151Z,88.80
2022-12-13T06:01:43.997Z,88.30
2022-12-13T06:02:21.432Z,88.20
2022-12-13T06:02:53.894Z,88.20
2022-12-13T06:03:25.845Z,88.30
2022-12-13T06:03:57.728Z,88.80
2022-12-13T06:04:29.525Z,88.80
2022-12-13T06:05:01.256Z,88.20
2022-12-13T06:05:34.026Z,88.80
2022-12-13T06:06:08.559Z,88.10
2022-12-13T06:06:40.443Z,88.20
2022-12-13T06:07:13.184Z,88.70
2022-12-13T06:07:45.443Z,88.70
2022-12-13T06:08:24.787Z,88.20
2022-12-13T06:08:59.367Z,88.70
2022-12-13T06:09:31.267Z,88.70
2022-12-13T06:10:10.241Z,88.70
2022-12-13T06:10:43.065Z,90.40
2022-12-13T06:11:31.865Z,88.60
2022-12-13T06:12:04.607Z,88.60
2022-12-13T06:13:00.736Z,88.60
2022-12-13T06:13:33.311Z,88.40
2022-12-13T06:14:22.516Z,88.40
2022-12-13T06:14:54.776Z,88.50
2022-12-13T06:15:34.794Z,88.50
2022-12-13T06:16:07.105Z,88.40
2022-12-13T06:16:55.627Z,87.80
2022-12-13T06:17:34.174Z,87.50
2022-12-13T06:18:06.082Z,88.40
2022-12-13T06:18:37.928Z,88.30
2022-12-13T06:19:09.657Z,88.30
2022-12-13T06:19:41.418Z,87.90
2022-12-13T06:20:23.499Z,87.70
2022-12-13T06:20:58.551Z,88.40
2022-12-13T06:21:43.533Z,87.90
2022-12-13T06:22:18.104Z,88.40
2022-12-13T06:22:49.932Z,88.40
2022-12-13T06:23:21.630Z,90.40
2022-12-13T06:23:54.001Z,88.90
2022-12-13T06:24:27.370Z,88.40
2022-12-13T06:24:59.161Z,87.90
2022-12-13T06:25:32.108Z,88.50
2022-12-13T06:26:06.429Z,87.90
2022-12-13T06:26:38.239Z,87.90
2022-12-13T06:27:10.145Z,87.90
2022-12-13T06:27:41.942Z,88.50
2022-12-13T06:28:13.905Z,88.00
2022-12-13T06:28:45.622Z,88.60
2022-12-13T06:29:23.131Z,88.00
2022-12-13T06:30:02.283Z,87.90
2022-12-13T06:30:34.531Z,88.40
2022-12-13T06:31:06.626Z,87.90
2022-12-13T06:31:38.435Z,87.80
2022-12-13T06:32:10.473Z,88.40
2022-12-13T06:32:44.077Z,88.40
2022-12-13T06:33:15.887Z,90.20
2022-12-13T06:33:55.372Z,88.00
2022-12-13T06:34:27.903Z,88.00
2022-12-13T06:34:59.939Z,88.40
2022-12-13T06:35:35.229Z,88.50
2022-12-13T06:36:10.682Z,89.20
2022-12-13T06:36:43.039Z,88.50
2022-12-13T06:37:15.285Z,88.60
2022-12-13T06:37:51.330Z,88.00
2022-12-13T06:38:31.360Z,88.00
2022-12-13T06:39:05.291Z,87.90
2022-12-13T06:39:37.188Z,88.40
2022-12-13T06:40:09.610Z,87.90
2022-12-13T06:40:41.360Z,88.30
2022-12-13T06:41:15.050Z,88.40
2022-12-13T06:41:46.821Z,88.30
2022-12-13T06:42:21.825Z,87.90
2022-12-13T06:42:54.135Z,88.40
2022-12-13T06:43:25.848Z,88.90
2022-12-13T06:43:58.254Z,88.00
2022-12-13T06:44:30.255Z,88.40
2022-12-13T06:45:02.028Z,87.90
2022-12-13T06:45:33.828Z,87.90
2022-12-13T06:46:06.658Z,88.00
2022-12-13T06:46:41.163Z,88.00
2022-12-13T06:47:31.760Z,88.00
2022-12-13T06:48:04.225Z,88.00
2022-12-13T06:48:36.164Z,88.50
2022-12-13T06:49:08.014Z,87.90
2022-12-13T06:49:43.070Z,90.00
2022-12-13T06:50:15.453Z,88.10
2022-12-13T06:50:47.226Z,88.60
2022-12-13T06:51:22.845Z,88.30
2022-12-13T06:51:56.133Z,88.40
2022-12-13T06:52:27.856Z,87.80
2022-12-13T06:52:59.644Z,87.90
2022-12-13T06:53:32.085Z,88.10
2022-12-13T06:54:04.136Z,87.80
2022-12-13T06:54:35.880Z,87.90
2022-12-13T06:55:08.015Z,88.60
2022-12-13T06:55:39.715Z,88.40
2022-12-13T06:56:13.942Z,88.00
2022-12-13T06:56:45.749Z,87.80
2022-12-13T06:57:18.112Z,87.70
2022-12-13T06:57:49.847Z,87.70
2022-12-13T06:58:22.537Z,87.70
2022-12-13T06:59:01.521Z,88.30
2022-12-13T06:59:33.954Z,87.80
2022-12-13T07:00:06.460Z,87.90
2022-12-13T07:00:48.600Z,87.80
2022-12-13T07:01:24.539Z,88.40
2022-12-13T07:02:03.723Z,87.80
2022-12-13T07:02:37.897Z,87.80
2022-12-13T07:03:12.153Z,87.90
2022-12-13T07:03:44.650Z,87.90
2022-12-13T07:04:28.884Z,88.20
2022-12-13T07:05:02.538Z,88.20
2022-12-13T07:05:34.808Z,87.70
2022-12-13T07:06:26.895Z,87.60
2022-12-13T07:07:01.725Z,88.20
2022-12-13T07:07:34.032Z,87.70
2022-12-13T07:08:06.125Z,87.80
2022-12-13T07:08:37.984Z,87.80
2022-12-13T07:09:09.744Z,87.70
2022-12-13T07:09:41.866Z,88.30
2022-12-13T07:10:21.960Z,87.60
2022-12-13T07:10:55.146Z,87.80
2022-12-13T07:11:29.844Z,87.80
2022-12-13T07:12:01.645Z,87.80
2022-12-13T07:13:41.699Z,87.60
2022-12-13T07:14:13.556Z,87.40
2022-12-13T07:14:45.327Z,87.50
2022-12-13T07:15:17.309Z,87.40
2022-12-13T07:15:50.197Z,87.50
2022-12-13T07:16:23.863Z,87.40
2022-12-13T07:17:03.066Z,87.40
2022-12-13T07:17:35.060Z,87.40
2022-12-13T07:18:06.905Z,87.40
2022-12-13T07:18:39.412Z,87.30
2022-12-13T07:19:22.730Z,87.20
2022-12-13T07:19:56.258Z,87.20
2022-12-13T07:20:32.965Z,87.10
2022-12-13T07:21:06.810Z,86.90
2022-12-13T07:21:39.861Z,87.00
2022-12-13T07:22:11.590Z,87.00
2022-12-13T07:22:48.518Z,87.20
2022-12-13T07:23:56.567Z,86.80
2022-12-13T07:24:28.331Z,87.10
2022-12-13T07:25:00.110Z,87.20
2022-12-13T07:26:04.946Z,85.20
2022-12-13T07:26:36.771Z,87.10
2022-12-13T07:28:45.917Z,86.80
2022-12-13T07:29:54.247Z,86.90
2022-12-13T07:30:25.962Z,87.00
2022-12-13T07:31:00.905Z,87.00
2022-12-13T07:31:35.622Z,87.10
2022-12-13T07:32:39.554Z,87.00
2022-12-13T07:33:11.357Z,87.00
2022-12-13T07:33:43.091Z,87.00
2022-12-13T07:34:15.866Z,86.80
2022-12-13T07:34:47.723Z,87.00
2022-12-13T07:35:19.613Z,86.80
2022-12-13T07:35:55.430Z,86.80
2022-12-13T07:36:59.610Z,86.90
2022-12-13T07:37:31.394Z,87.00
2022-12-13T07:38:03.383Z,86.90
2022-12-13T07:38:36.049Z,86.90
2022-12-13T07:39:07.914Z,87.00
2022-12-13T07:39:39.698Z,86.90
2022-12-13T07:41:23.518Z,86.50
2022-12-13T07:41:58.703Z,86.70
2022-12-13T07:43:03.339Z,86.50
2022-12-13T07:43:35.705Z,86.80
2022-12-13T07:44:07.491Z,86.80
2022-12-13T07:44:39.211Z,86.90
2022-12-13T07:45:11.075Z,87.00
2022-12-13T07:45:42.896Z,87.00
2022-12-13T07:47:51.407Z,86.40
2022-12-13T07:48:23.210Z,86.50
2022-12-13T07:48:55.024Z,86.60
2022-12-13T07:50:06.502Z,86.70